• Join FlightAware (Why Join?)
  • Login
  • US Flag 
09:54PM EDT


 

Airport Tracker/Info


-or-


 

Live Flight TrackerFlight Track Log ✈ UPS1121 ✈ 06-Aug-2013 ✈ KBDL - KPHL

Flight Track Log - Related Links

Times and Time Zones

All times are in EDT time to prevent confusion due to time zone crossing. See the UPS1121 flight status page for this flight to view local times or setup timezone preferences in your user account.

Time Position Orientation Groundspeed Altitude Reporting Facility
EDT Latitude Longitude Course Direction KTS MPH feet Rate Location/Type
09:54PM 41.9375 -72.6942 203° Southwest 139 160 1,100  Level Boston Center
09:55PM 41.8894 -72.7217 203° Southwest 195 224 3,200 2,460 Climbing Boston Center
09:56PM 41.8250 -72.6686 148° Southeast 229 264 6,700 3,420 Climbing Boston Center
09:57PM 41.7522 -72.6239 155° Southeast 270 311 10,600 1,860 Climbing Boston Center
10:03PM 41.1740 -72.7130 155° Southeast 395 455 20,100 1,380 Climbing FlightAware
10:04PM 41.1030 -72.7390 195° South 394 453 20,100  Level FlightAware
10:05PM 41.0530 -72.7560 194° South 395 455 20,100  Level FlightAware
10:05PM 40.9430 -72.7960 195° South 394 453 20,100  Level FlightAware
10:05PM 40.9290 -72.8030 201° Southwest 393 452 20,100  Level FlightAware
10:06PM 40.8435 -72.8632 208° Southwest 392 451 20,100  Level FlightAware ADS-B
10:07PM 40.7940 -72.8997 209° Southwest 392 451 20,100  Level FlightAware ADS-B
10:07PM 40.7452 -72.9354 209° Southwest 393 452 20,100  Level FlightAware ADS-B
10:08PM 40.6955 -72.9717 209° Southwest 394 453 20,100  Level FlightAware ADS-B
10:08PM 40.6470 -73.0071 209° Southwest 394 453 20,100  Level FlightAware ADS-B
10:09PM 40.5991 -73.0421 209° Southwest 394 453 20,100  Level FlightAware ADS-B
10:09PM 40.5437 -73.0824 209° Southwest 394 453 20,100  Level FlightAware ADS-B
10:10PM 40.4956 -73.1172 209° Southwest 393 452 20,100  Level FlightAware ADS-B
10:10PM 40.4460 -73.1531 209° Southwest 393 452 20,100  Level FlightAware ADS-B
10:11PM 40.3960 -73.1894 209° Southwest 394 453 20,100  Level FlightAware ADS-B
10:11PM 40.3414 -73.2289 209° Southwest 394 453 20,100  Level FlightAware ADS-B
10:12PM 40.2908 -73.2654 209° Southwest 394 453 20,100  Level FlightAware ADS-B
10:13PM 40.2333 -73.3065 209° Southwest 394 453 20,100  Level FlightAware ADS-B
10:13PM 40.1825 -73.3425 208° Southwest 394 453 20,100  Level FlightAware ADS-B
10:14PM 40.1327 -73.3779 209° Southwest 394 453 20,100  Level FlightAware ADS-B
10:14PM 40.0811 -73.4147 209° Southwest 394 453 20,100  Level FlightAware ADS-B
10:15PM 40.0316 -73.4499 209° Southwest 394 453 20,100  Level FlightAware ADS-B
10:15PM 39.9822 -73.4849 208° Southwest 394 453 20,100  Level FlightAware ADS-B
10:16PM 39.9329 -73.5199 209° Southwest 394 453 20,100  Level FlightAware ADS-B
10:16PM 39.9099 -73.5400 214° Southwest 392 451 20,100 -300 Level FlightAware ADS-B
10:16PM 39.8969 -73.5543 220° Southwest 390 449 20,000  Descending FlightAware ADS-B
10:16PM 39.8804 -73.5768 226° Southwest 388 447 20,100 120 Climbing FlightAware ADS-B
10:17PM 39.8452 -73.6323 230° Southwest 387 445 20,100  Level FlightAware ADS-B
10:17PM 39.8088 -73.6902 231° Southwest 388 447 20,100  Level FlightAware ADS-B
10:18PM 39.7717 -73.7490 231° Southwest 387 445 20,100  Level FlightAware ADS-B
10:18PM 39.7348 -73.8069 230° Southwest 388 447 20,100 -300 Level FlightAware ADS-B
10:19PM 39.6978 -73.8653 231° Southwest 374 430 19,800 -1,260 Descending FlightAware ADS-B
10:20PM 39.6645 -73.9178 231° Southwest 367 422 18,800 -2,280 Descending FlightAware ADS-B
10:20PM 39.6319 -73.9693 231° Southwest 369 425 17,500 -2,400 Descending FlightAware ADS-B
10:21PM 39.5995 -74.0201 230° Southwest 361 415 16,400 -2,220 Descending FlightAware ADS-B
10:21PM 39.5676 -74.0699 230° Southwest 356 410 15,300 -2,160 Descending FlightAware ADS-B
10:21PM 39.5469 -74.1026 231° Southwest 351 404 14,600 -2,160 Descending FlightAware ADS-B
10:22PM 39.5400 -74.1154 235° Southwest 348 400 14,300 -2,040 Descending FlightAware ADS-B
10:22PM 39.5329 -74.1335 243° Southwest 344 396 14,000 -1,200 Descending FlightAware ADS-B
10:22PM 39.5274 -74.1567 253° West 340 391 13,900 -240 Descending FlightAware ADS-B
10:22PM 39.5255 -74.1859 265° West 337 388 13,900 -420 Level FlightAware ADS-B
10:23PM 39.5263 -74.2472 271° West 328 377 13,600 -1,320 Descending FlightAware ADS-B
10:23PM 39.5277 -74.3069 272° West 321 369 12,600 -1,560 Descending FlightAware ADS-B
10:24PM 39.5289 -74.3743 271° West 330 380 11,900 -1,080 Descending FlightAware ADS-B
10:24PM 39.5299 -74.4489 271° West 330 380 11,300 -960 Descending FlightAware ADS-B
10:25PM 39.5311 -74.5294 271° West 325 374 10,700 -1,020 Descending FlightAware ADS-B
10:26PM 39.5326 -74.6152 271° West 302 348 9,900 -900 Descending FlightAware ADS-B
10:26PM 39.5334 -74.6557 271° West 278 320 9,700 -780 Descending FlightAware ADS-B
10:26PM 39.5338 -74.6808 271° West 273 314 9,400 -1,020 Descending FlightAware ADS-B
10:27PM 39.5342 -74.7054 271° West 273 314 9,200 -840 Descending FlightAware ADS-B
10:27PM 39.5347 -74.7301 272° West 272 313 9,000 -840 Descending FlightAware ADS-B
10:27PM 39.5352 -74.7547 272° West 271 312 8,800 -480 Descending FlightAware ADS-B
10:27PM 39.5355 -74.7744 271° West 270 311 8,800  Level FlightAware ADS-B
10:28PM 39.5357 -74.7949 271° West 271 312 8,800  Level FlightAware ADS-B
10:28PM 39.5360 -74.8198 271° West 272 313 8,800  Level FlightAware ADS-B
10:28PM 39.5362 -74.8452 271° West 272 313 8,800  Level FlightAware ADS-B
10:28PM 39.5366 -74.8706 271° West 271 312 8,800  Level FlightAware ADS-B
10:29PM 39.5370 -74.8959 271° West 272 313 8,800  Level FlightAware ADS-B
10:29PM 39.5373 -74.9208 271° West 274 315 8,800  Level FlightAware ADS-B
10:29PM 39.5378 -74.9501 271° West 273 314 8,800  Level FlightAware ADS-B
10:29PM 39.5387 -74.9743 273° West 270 311 8,800 -240 Level FlightAware ADS-B
10:30PM 39.5410 -74.9992 277° West 268 308 8,700 -840 Descending FlightAware ADS-B
10:30PM 39.5432 -75.0103 284° West 267 307 8,500 -1,320 Descending FlightAware ADS-B
10:30PM 39.5494 -75.0344 288° West 267 307 8,200 -1,500 Descending FlightAware ADS-B
10:30PM 39.5549 -75.0544 290° West 268 308 7,800 -1,680 Descending FlightAware ADS-B
10:30PM 39.5602 -75.0732 290° West 269 310 7,500 -1,680 Descending FlightAware ADS-B
10:31PM 39.5691 -75.1046 290° West 267 307 6,900 -1,620 Descending FlightAware ADS-B
10:31PM 39.5799 -75.1422 290° West 266 306 6,300 -1,380 Descending FlightAware ADS-B
10:32PM 39.5862 -75.1644 290° West 261 300 6,000 -1,020 Descending FlightAware ADS-B
10:32PM 39.5925 -75.1874 290° West 262 302 5,800 -420 Descending FlightAware ADS-B
10:32PM 39.5992 -75.2112 290° West 261 300 5,800  Level FlightAware ADS-B
10:32PM 39.6056 -75.2343 290° West 261 300 5,800 -240 Level FlightAware ADS-B
10:33PM 39.6119 -75.2565 290° West 258 297 5,700 -840 Descending FlightAware ADS-B
10:33PM 39.6182 -75.2786 290° West 255 293 5,400 -1,380 Descending FlightAware ADS-B
10:33PM 39.6249 -75.3018 291° West 254 292 5,000 -1,320 Descending FlightAware ADS-B
10:33PM 39.6317 -75.3254 291° West 253 291 4,700 -1,320 Descending FlightAware ADS-B
10:34PM 39.6381 -75.3474 291° West 253 291 4,300 -1,560 Descending FlightAware ADS-B
10:34PM 39.6447 -75.3704 290° West 255 293 3,900 -960 Descending FlightAware ADS-B
10:34PM 39.6511 -75.3921 291° West 251 289 3,800 -240 Descending FlightAware ADS-B
10:34PM 39.6574 -75.4133 291° West 237 273 3,800  Level FlightAware ADS-B
10:35PM 39.6633 -75.4329 291° West 221 254 3,800  Level FlightAware ADS-B
10:35PM 39.6692 -75.4523 292° West 211 243 3,800  Level FlightAware ADS-B
10:35PM 39.6744 -75.4695 291° West 203 234 3,800  Level FlightAware ADS-B
10:35PM 39.6797 -75.4871 291° West 202 232 3,800  Level FlightAware ADS-B
10:36PM 39.6854 -75.5054 292° West 204 235 3,800  Level FlightAware ADS-B
10:36PM 39.6907 -75.5229 291° West 203 234 3,800  Level FlightAware ADS-B
10:36PM 39.6960 -75.5402 292° West 205 236 3,800  Level FlightAware ADS-B
10:36PM 39.7017 -75.5582 292° West 203 234 3,800  Level FlightAware ADS-B
10:37PM 39.7077 -75.5775 292° West 204 235 3,800  Level FlightAware ADS-B
10:37PM 39.7092 -75.5813 297° West 204 235 3,800  Level FlightAware ADS-B
10:37PM 39.7116 -75.5858 305° West 207 238 3,800  Level FlightAware ADS-B
10:37PM 39.7136 -75.5886 313° West 209 241 3,800  Level FlightAware ADS-B
10:37PM 39.7160 -75.5912 320° Northwest 211 243 3,800  Level FlightAware ADS-B
10:37PM 39.7185 -75.5933 327° Northwest 213 245 3,800  Level FlightAware ADS-B
10:37PM 39.7214 -75.5952 333° Northwest 215 247 3,800 960 Level FlightAware ADS-B
10:37PM 39.7244 -75.5966 340° North 216 249 3,900 600 Climbing FlightAware ADS-B
10:37PM 39.7314 -75.5987 347° North 216 249 3,900 -300 Level FlightAware ADS-B
10:38PM 39.7456 -75.6017 351° North 211 243 3,800 -240 Descending FlightAware ADS-B
10:38PM 39.7561 -75.6037 352° North 207 238 3,800  Level FlightAware ADS-B
10:38PM 39.7611 -75.6042 356° North 206 237 3,800  Level FlightAware ADS-B
10:38PM 39.7657 -75.6037 North 207 238 3,800  Level FlightAware ADS-B
10:38PM 39.7694 -75.6024 15° North 206 237 3,800  Level FlightAware ADS-B
10:38PM 39.7720 -75.6010 22° Northeast 207 238 3,800 -900 Level FlightAware ADS-B
10:38PM 39.7753 -75.5985 30° Northeast 205 236 3,700 -780 Descending FlightAware ADS-B
10:38PM 39.7786 -75.5951 38° Northeast 204 235 3,700 -600 Level FlightAware ADS-B
10:38PM 39.7826 -75.5900 44° Northeast 203 234 3,600 -1,140 Descending FlightAware ADS-B
10:38PM 39.7923 -75.5765 47° Northeast 204 235 3,300 -1,080 Descending FlightAware ADS-B
10:39PM 39.7970 -75.5698 48° Northeast 203 234 3,200 -1,140 Descending FlightAware ADS-B
10:39PM 39.7994 -75.5659 51° Northeast 202 232 3,100 -1,380 Descending FlightAware ADS-B
10:39PM 39.8017 -75.5612 58° Northeast 201 231 3,000 -1,500 Descending FlightAware ADS-B
10:39PM 39.8033 -75.5573 62° Northeast 199 229 2,900 -1,020 Descending FlightAware ADS-B
10:39PM 39.8043 -75.5541 68° East 197 227 2,900  Level FlightAware ADS-B
10:39PM 39.8055 -75.5495 71° East 196 226 2,900  Level FlightAware ADS-B
10:39PM 39.8065 -75.5451 74° East 196 226 2,900 -420 Level FlightAware ADS-B
10:39PM 39.8092 -75.5320 75° East 195 224 2,800 -240 Descending FlightAware ADS-B
10:39PM 39.8127 -75.5152 75° East 190 219 2,800  Level FlightAware ADS-B
10:40PM 39.8150 -75.5037 75° East 187 215 2,800 240 Level FlightAware ADS-B
10:40PM 39.8178 -75.4894 76° East 185 213 2,900 240 Climbing FlightAware ADS-B
10:40PM 39.8201 -75.4781 75° East 183 211 2,900 -240 Level FlightAware ADS-B
10:40PM 39.8234 -75.4621 75° East 185 213 2,800 -780 Descending FlightAware ADS-B
10:41PM 39.8267 -75.4452 76° East 182 209 2,500 -1,020 Descending FlightAware ADS-B
10:41PM 39.8300 -75.4292 75° East 179 206 2,300 -1,020 Descending FlightAware ADS-B
10:41PM 39.8332 -75.4133 75° East 178 205 2,000 -1,020 Descending FlightAware ADS-B
10:41PM 39.8363 -75.3975 76° East 178 205 1,800 -780 Descending FlightAware ADS-B
10:41PM 39.8381 -75.3888 75° East 177 204 1,700 -1,080 Descending FlightAware ADS-B
10:42PM 39.8412 -75.3734 75° East 168 193 1,400 -1,080 Descending FlightAware ADS-B
10:42PM 39.8437 -75.3608 76° East 155 178 1,200 -840 Descending FlightAware ADS-B
10:42PM 39.8465 -75.3475 75° East 138 159 1,000 -600 Descending FlightAware ADS-B
10:42PM 39.8488 -75.3364 75° East 127 146 900 -540 Descending FlightAware ADS-B
10:43PM 39.8499 -75.3305 76° East 123 142 800 -780 Descending FlightAware ADS-B
10:43PM 39.8510 -75.3246 76° East 120 138 700 -840 Descending FlightAware ADS-B
10:43PM 39.8531 -75.3139 76° East 118 136 500 -840 Descending FlightAware ADS-B
10:43PM 39.8542 -75.3087 75° East 118 136 400 -540 Descending FlightAware ADS-B
10:43PM 39.8563 -75.2976 76° East 115 132 300 -420 Descending FlightAware ADS-B